Scotlandville, Louisiana
Current Conditions -  °F | °C
As of 7:53 AM on Monday 20 Oct 2014 (Local Time) from KBTR Reporting Station
Clear Clear  
Wind Chill: 54°   Ceiling: Unl
Heat Index: 54°   Visibility: 10mi
Dew Point: 49°   Wind: 3mph
Humidity: 83%   Direction: 20°NNE
Pressure: 30.06"   Gusts: NA
Location:  30.5305°N, 91.1163°W
Report Text: KBTR 201253Z AUTO 02003KT 10SM CLR 12/09 A3006 RMK AO2 SLP180 T01220094 TSNO
Loading
Personal Weather Stations






























Interactive Weather Map
Tropical Storm Tracking
New forecast layout! Learn more

10-Day Weather Forecast

Advertisements
Track Severe Weather on mobile